sensor_id;sensor_type;location;lat;lon;timestamp;temperature;humidity
5786;DHT22;2919;48.630;9.000;2023-01-23T00:00:35;-0.30;99.90
5786;DHT22;2919;48.630;9.000;2023-01-23T00:03:01;-0.30;99.90
5786;DHT22;2919;48.630;9.000;2023-01-23T00:05:27;-0.30;99.90
5786;DHT22;2919;48.630;9.000;2023-01-23T00:07:53;-0.30;99.90
5786;DHT22;2919;48.630;9.000;2023-01-23T00:10:19;-0.30;99.90
5786;DHT22;2919;48.630;9.000;2023-01-23T00:12:45;-0.30;99.90
5786;DHT22;2919;48.630;9.000;2023-01-23T00:15:11;-0.30;99.90
5786;DHT22;2919;48.630;9.000;2023-01-23T00:17:38;-0.30;99.90
5786;DHT22;2919;48.630;9.000;2023-01-23T00:20:09;-0.30;99.90
5786;DHT22;2919;48.630;9.000;2023-01-23T00:22:34;-0.40;99.90
5786;DHT22;2919;48.630;9.000;2023-01-23T00:25:00;-0.40;99.90
5786;DHT22;2919;48.630;9.000;2023-01-23T00:27:26;-0.30;99.90
5786;DHT22;2919;48.630;9.000;2023-01-23T00:29:52;-0.40;99.90
5786;DHT22;2919;48.630;9.000;2023-01-23T00:32:18;-0.40;99.90
5786;DHT22;2919;48.630;9.000;2023-01-23T00:34:45;-0.40;99.90
5786;DHT22;2919;48.630;9.000;2023-01-23T00:37:11;-0.40;99.90
5786;DHT22;2919;48.630;9.000;2023-01-23T00:39:37;-0.40;99.90
5786;DHT22;2919;48.630;9.000;2023-01-23T00:42:02;-0.40;99.90
5786;DHT22;2919;48.630;9.000;2023-01-23T00:44:28;-0.40;99.90
5786;DHT22;2919;48.630;9.000;2023-01-23T00:46:55;-0.50;99.90
5786;DHT22;2919;48.630;9.000;2023-01-23T00:49:21;-0.50;99.90
5786;DHT22;2919;48.630;9.000;2023-01-23T00:51:47;-0.60;99.90
5786;DHT22;2919;48.630;9.000;2023-01-23T00:54:12;-0.50;99.90
5786;DHT22;2919;48.630;9.000;2023-01-23T00:56:38;-0.70;99.90
5786;DHT22;2919;48.630;9.000;2023-01-23T00:59:04;-0.60;99.90
5786;DHT22;2919;48.630;9.000;2023-01-23T01:01:29;-0.60;99.90
5786;DHT22;2919;48.630;9.000;2023-01-23T01:03:57;-0.60;99.90
5786;DHT22;2919;48.630;9.000;2023-01-23T01:06:23;-0.60;99.90
5786;DHT22;2919;48.630;9.000;2023-01-23T01:08:49;-0.60;99.90
5786;DHT22;2919;48.630;9.000;2023-01-23T01:11:15;-0.60;99.90
5786;DHT22;2919;48.630;9.000;2023-01-23T01:13:41;-0.60;99.90
5786;DHT22;2919;48.630;9.000;2023-01-23T01:16:07;-0.60;99.90
5786;DHT22;2919;48.630;9.000;2023-01-23T01:18:33;-0.60;99.90
5786;DHT22;2919;48.630;9.000;2023-01-23T01:20:59;-0.50;99.90
5786;DHT22;2919;48.630;9.000;2023-01-23T01:23:25;-0.50;99.90
5786;DHT22;2919;48.630;9.000;2023-01-23T01:25:51;-0.50;99.90
5786;DHT22;2919;48.630;9.000;2023-01-23T01:28:16;-0.50;99.90
5786;DHT22;2919;48.630;9.000;2023-01-23T01:30:42;-0.50;99.90
5786;DHT22;2919;48.630;9.000;2023-01-23T01:33:08;-0.50;99.90
5786;DHT22;2919;48.630;9.000;2023-01-23T01:35:37;-0.50;99.90
5786;DHT22;2919;48.630;9.000;2023-01-23T01:38:03;-0.50;99.90
5786;DHT22;2919;48.630;9.000;2023-01-23T01:40:32;-0.50;99.90
5786;DHT22;2919;48.630;9.000;2023-01-23T01:43:04;-0.50;99.90
5786;DHT22;2919;48.630;9.000;2023-01-23T01:49:08;-0.60;99.90
5786;DHT22;2919;48.630;9.000;2023-01-23T01:56:57;-0.60;99.90
5786;DHT22;2919;48.630;9.000;2023-01-23T01:59:27;-0.50;99.90
5786;DHT22;2919;48.630;9.000;2023-01-23T02:01:59;-0.50;99.90
5786;DHT22;2919;48.630;9.000;2023-01-23T02:04:31;-0.60;99.90
5786;DHT22;2919;48.630;9.000;2023-01-23T02:06:59;-0.50;99.90
5786;DHT22;2919;48.630;9.000;2023-01-23T02:09:26;-0.50;99.90
5786;DHT22;2919;48.630;9.000;2023-01-23T02:11:52;-0.50;99.90
5786;DHT22;2919;48.630;9.000;2023-01-23T02:14:19;-0.60;99.90
5786;DHT22;2919;48.630;9.000;2023-01-23T02:16:45;-0.50;99.90
5786;DHT22;2919;48.630;9.000;2023-01-23T02:19:25;-0.50;99.90
5786;DHT22;2919;48.630;9.000;2023-01-23T02:22:02;-0.50;99.90
5786;DHT22;2919;48.630;9.000;2023-01-23T02:24:46;-0.50;99.90
5786;DHT22;2919;48.630;9.000;2023-01-23T02:27:14;-0.50;99.90
5786;DHT22;2919;48.630;9.000;2023-01-23T02:29:44;-0.50;99.90
5786;DHT22;2919;48.630;9.000;2023-01-23T02:32:11;-0.50;99.90
5786;DHT22;2919;48.630;9.000;2023-01-23T02:34:37;-0.50;99.90
5786;DHT22;2919;48.630;9.000;2023-01-23T02:37:04;-0.50;99.90
5786;DHT22;2919;48.630;9.000;2023-01-23T02:39:31;-0.50;99.90
5786;DHT22;2919;48.630;9.000;2023-01-23T02:41:57;-0.50;99.90
5786;DHT22;2919;48.630;9.000;2023-01-23T02:44:29;-0.50;99.90
5786;DHT22;2919;48.630;9.000;2023-01-23T02:46:59;-0.50;99.90
5786;DHT22;2919;48.630;9.000;2023-01-23T02:49:25;-0.50;99.90
5786;DHT22;2919;48.630;9.000;2023-01-23T02:51:52;-0.50;99.90
5786;DHT22;2919;48.630;9.000;2023-01-23T02:54:18;-0.50;99.90
5786;DHT22;2919;48.630;9.000;2023-01-23T02:56:44;-0.50;99.90
5786;DHT22;2919;48.630;9.000;2023-01-23T02:59:11;-0.50;99.90
5786;DHT22;2919;48.630;9.000;2023-01-23T03:01:56;-0.50;99.90
5786;DHT22;2919;48.630;9.000;2023-01-23T03:04:21;-0.60;99.90
5786;DHT22;2919;48.630;9.000;2023-01-23T03:06:47;-0.50;99.90
5786;DHT22;2919;48.630;9.000;2023-01-23T03:09:15;-0.50;99.90
5786;DHT22;2919;48.630;9.000;2023-01-23T03:11:42;-0.50;99.90
5786;DHT22;2919;48.630;9.000;2023-01-23T03:14:20;-0.40;99.90
5786;DHT22;2919;48.630;9.000;2023-01-23T03:16:46;-0.50;99.90
5786;DHT22;2919;48.630;9.000;2023-01-23T03:19:17;-0.50;99.90
5786;DHT22;2919;48.630;9.000;2023-01-23T03:21:43;-0.50;99.90
5786;DHT22;2919;48.630;9.000;2023-01-23T03:24:11;-0.50;99.90
5786;DHT22;2919;48.630;9.000;2023-01-23T03:26:43;-0.50;99.90
5786;DHT22;2919;48.630;9.000;2023-01-23T03:29:18;-0.50;99.90
5786;DHT22;2919;48.630;9.000;2023-01-23T03:32:04;-0.50;99.90
5786;DHT22;2919;48.630;9.000;2023-01-23T03:34:30;-0.50;99.90
5786;DHT22;2919;48.630;9.000;2023-01-23T03:36:56;-0.50;99.90
5786;DHT22;2919;48.630;9.000;2023-01-23T03:39:23;-0.50;99.90
5786;DHT22;2919;48.630;9.000;2023-01-23T03:42:07;-0.50;99.90
5786;DHT22;2919;48.630;9.000;2023-01-23T03:44:32;-0.50;99.90
5786;DHT22;2919;48.630;9.000;2023-01-23T03:46:58;-0.50;99.90
5786;DHT22;2919;48.630;9.000;2023-01-23T03:49:24;-0.50;99.90
5786;DHT22;2919;48.630;9.000;2023-01-23T03:51:49;-0.50;99.90
5786;DHT22;2919;48.630;9.000;2023-01-23T03:54:15;-0.50;99.90
5786;DHT22;2919;48.630;9.000;2023-01-23T03:56:41;-0.50;99.90
5786;DHT22;2919;48.630;9.000;2023-01-23T03:59:07;-0.50;99.90
5786;DHT22;2919;48.630;9.000;2023-01-23T04:01:33;-0.50;99.90
5786;DHT22;2919;48.630;9.000;2023-01-23T04:03:59;-0.50;99.90
5786;DHT22;2919;48.630;9.000;2023-01-23T04:06:25;-0.60;99.90
5786;DHT22;2919;48.630;9.000;2023-01-23T04:08:51;-0.50;99.90
5786;DHT22;2919;48.630;9.000;2023-01-23T04:11:17;-0.50;99.90
5786;DHT22;2919;48.630;9.000;2023-01-23T04:13:44;-0.50;99.90
5786;DHT22;2919;48.630;9.000;2023-01-23T04:16:11;-0.50;99.90
5786;DHT22;2919;48.630;9.000;2023-01-23T04:18:37;-0.50;99.90
5786;DHT22;2919;48.630;9.000;2023-01-23T04:21:03;-0.50;99.90
5786;DHT22;2919;48.630;9.000;2023-01-23T04:23:29;-0.50;99.90
5786;DHT22;2919;48.630;9.000;2023-01-23T04:25:55;-0.50;99.90
5786;DHT22;2919;48.630;9.000;2023-01-23T04:28:20;-0.50;99.90
5786;DHT22;2919;48.630;9.000;2023-01-23T04:30:46;-0.50;99.90
5786;DHT22;2919;48.630;9.000;2023-01-23T04:33:12;-0.50;99.90
5786;DHT22;2919;48.630;9.000;2023-01-23T04:35:37;-0.40;99.90
5786;DHT22;2919;48.630;9.000;2023-01-23T04:38:03;-0.60;99.90
5786;DHT22;2919;48.630;9.000;2023-01-23T04:40:29;-0.50;99.90
5786;DHT22;2919;48.630;9.000;2023-01-23T04:42:54;-0.60;99.90
5786;DHT22;2919;48.630;9.000;2023-01-23T04:45:20;-0.60;99.90
5786;DHT22;2919;48.630;9.000;2023-01-23T04:47:46;-0.50;99.90
5786;DHT22;2919;48.630;9.000;2023-01-23T04:50:11;-0.50;99.90
5786;DHT22;2919;48.630;9.000;2023-01-23T04:52:37;-0.50;99.90
5786;DHT22;2919;48.630;9.000;2023-01-23T04:55:03;-0.50;99.90
5786;DHT22;2919;48.630;9.000;2023-01-23T04:57:30;-0.50;99.90
5786;DHT22;2919;48.630;9.000;2023-01-23T04:59:55;-0.50;99.90
5786;DHT22;2919;48.630;9.000;2023-01-23T05:02:21;-0.50;99.90
5786;DHT22;2919;48.630;9.000;2023-01-23T05:04:46;-0.50;99.90
5786;DHT22;2919;48.630;9.000;2023-01-23T05:07:12;-0.50;99.90
5786;DHT22;2919;48.630;9.000;2023-01-23T05:09:38;-0.50;99.90
5786;DHT22;2919;48.630;9.000;2023-01-23T05:12:05;-0.50;99.90
5786;DHT22;2919;48.630;9.000;2023-01-23T05:14:30;-0.50;99.90
5786;DHT22;2919;48.630;9.000;2023-01-23T05:16:56;-0.40;99.90
5786;DHT22;2919;48.630;9.000;2023-01-23T05:19:21;-0.40;99.90
5786;DHT22;2919;48.630;9.000;2023-01-23T05:21:47;-0.40;99.90
5786;DHT22;2919;48.630;9.000;2023-01-23T05:24:13;-0.50;99.90
5786;DHT22;2919;48.630;9.000;2023-01-23T05:26:39;-0.50;99.90
5786;DHT22;2919;48.630;9.000;2023-01-23T05:29:04;-0.50;99.90
5786;DHT22;2919;48.630;9.000;2023-01-23T05:31:30;-0.50;99.90
5786;DHT22;2919;48.630;9.000;2023-01-23T05:33:56;-0.50;99.90
5786;DHT22;2919;48.630;9.000;2023-01-23T05:36:21;-0.50;99.90
5786;DHT22;2919;48.630;9.000;2023-01-23T05:38:47;-0.50;99.90
5786;DHT22;2919;48.630;9.000;2023-01-23T05:41:12;-0.50;99.90
5786;DHT22;2919;48.630;9.000;2023-01-23T05:43:38;-0.50;99.90
5786;DHT22;2919;48.630;9.000;2023-01-23T05:46:04;-0.50;99.90
5786;DHT22;2919;48.630;9.000;2023-01-23T05:48:29;-0.40;99.90
5786;DHT22;2919;48.630;9.000;2023-01-23T05:50:55;-0.40;99.90
5786;DHT22;2919;48.630;9.000;2023-01-23T05:53:20;-0.50;99.90
5786;DHT22;2919;48.630;9.000;2023-01-23T05:55:46;-0.50;99.90
5786;DHT22;2919;48.630;9.000;2023-01-23T05:58:12;-0.50;99.90
5786;DHT22;2919;48.630;9.000;2023-01-23T06:00:37;-0.50;99.90
5786;DHT22;2919;48.630;9.000;2023-01-23T06:03:03;-0.40;99.90
5786;DHT22;2919;48.630;9.000;2023-01-23T06:05:29;-0.50;99.90
5786;DHT22;2919;48.630;9.000;2023-01-23T06:07:54;-0.50;99.90
5786;DHT22;2919;48.630;9.000;2023-01-23T06:10:20;-0.50;99.90
5786;DHT22;2919;48.630;9.000;2023-01-23T06:12:45;-0.50;99.90
5786;DHT22;2919;48.630;9.000;2023-01-23T06:15:11;-0.50;99.90
5786;DHT22;2919;48.630;9.000;2023-01-23T06:17:37;-0.50;99.90
5786;DHT22;2919;48.630;9.000;2023-01-23T06:20:03;-0.50;99.90
5786;DHT22;2919;48.630;9.000;2023-01-23T06:22:30;-0.50;99.90
5786;DHT22;2919;48.630;9.000;2023-01-23T06:24:55;-0.50;99.90
5786;DHT22;2919;48.630;9.000;2023-01-23T06:27:21;-0.50;99.90
5786;DHT22;2919;48.630;9.000;2023-01-23T06:29:46;-0.50;99.90
5786;DHT22;2919;48.630;9.000;2023-01-23T06:32:12;-0.40;99.90
5786;DHT22;2919;48.630;9.000;2023-01-23T06:34:38;-0.40;99.90
5786;DHT22;2919;48.630;9.000;2023-01-23T06:37:04;-0.40;99.90
5786;DHT22;2919;48.630;9.000;2023-01-23T06:39:29;-0.40;99.90
5786;DHT22;2919;48.630;9.000;2023-01-23T06:41:56;-0.40;99.90
5786;DHT22;2919;48.630;9.000;2023-01-23T06:44:22;-0.40;99.90
5786;DHT22;2919;48.630;9.000;2023-01-23T06:46:48;-0.40;99.90
5786;DHT22;2919;48.630;9.000;2023-01-23T06:49:13;-0.40;99.90
5786;DHT22;2919;48.630;9.000;2023-01-23T06:51:39;-0.40;99.90
5786;DHT22;2919;48.630;9.000;2023-01-23T06:54:05;-0.40;99.90
5786;DHT22;2919;48.630;9.000;2023-01-23T06:56:30;-0.40;99.90
5786;DHT22;2919;48.630;9.000;2023-01-23T06:58:56;-0.40;99.90
5786;DHT22;2919;48.630;9.000;2023-01-23T07:01:22;-0.40;99.90
5786;DHT22;2919;48.630;9.000;2023-01-23T07:03:48;-0.40;99.90
5786;DHT22;2919;48.630;9.000;2023-01-23T07:06:15;-0.40;99.90
5786;DHT22;2919;48.630;9.000;2023-01-23T07:08:41;-0.40;99.90
5786;DHT22;2919;48.630;9.000;2023-01-23T07:11:07;-0.40;99.90
5786;DHT22;2919;48.630;9.000;2023-01-23T07:13:33;-0.40;99.90
5786;DHT22;2919;48.630;9.000;2023-01-23T07:15:59;-0.40;99.90
5786;DHT22;2919;48.630;9.000;2023-01-23T07:18:25;-0.40;99.90
5786;DHT22;2919;48.630;9.000;2023-01-23T07:20:53;-0.40;99.90
5786;DHT22;2919;48.630;9.000;2023-01-23T07:23:19;-0.40;99.90
5786;DHT22;2919;48.630;9.000;2023-01-23T07:25:44;-0.40;99.90
5786;DHT22;2919;48.630;9.000;2023-01-23T07:28:10;-0.40;99.90
5786;DHT22;2919;48.630;9.000;2023-01-23T07:30:36;-0.40;99.90
5786;DHT22;2919;48.630;9.000;2023-01-23T07:33:02;-0.40;99.90
5786;DHT22;2919;48.630;9.000;2023-01-23T07:35:28;-0.40;99.90
5786;DHT22;2919;48.630;9.000;2023-01-23T07:37:53;-0.40;99.90
5786;DHT22;2919;48.630;9.000;2023-01-23T07:40:19;-0.40;99.90
5786;DHT22;2919;48.630;9.000;2023-01-23T07:42:45;-0.40;99.90
5786;DHT22;2919;48.630;9.000;2023-01-23T07:45:11;-0.40;99.90
5786;DHT22;2919;48.630;9.000;2023-01-23T07:47:38;-0.40;99.90
5786;DHT22;2919;48.630;9.000;2023-01-23T07:50:08;-0.40;99.90
5786;DHT22;2919;48.630;9.000;2023-01-23T07:52:36;-0.30;99.90
5786;DHT22;2919;48.630;9.000;2023-01-23T07:55:02;-0.30;99.90
5786;DHT22;2919;48.630;9.000;2023-01-23T07:57:27;-0.40;99.90
5786;DHT22;2919;48.630;9.000;2023-01-23T07:59:53;-0.30;99.90
5786;DHT22;2919;48.630;9.000;2023-01-23T08:02:19;-0.30;99.90
5786;DHT22;2919;48.630;9.000;2023-01-23T08:04:45;-0.30;99.90
5786;DHT22;2919;48.630;9.000;2023-01-23T08:07:10;-0.30;99.90
5786;DHT22;2919;48.630;9.000;2023-01-23T08:09:36;-0.40;99.90
5786;DHT22;2919;48.630;9.000;2023-01-23T08:12:03;-0.40;99.90
5786;DHT22;2919;48.630;9.000;2023-01-23T08:14:29;-0.30;99.90
5786;DHT22;2919;48.630;9.000;2023-01-23T08:16:55;-0.30;99.90
5786;DHT22;2919;48.630;9.000;2023-01-23T08:19:21;-0.30;99.90
5786;DHT22;2919;48.630;9.000;2023-01-23T08:21:46;-0.30;99.90
5786;DHT22;2919;48.630;9.000;2023-01-23T08:24:13;-0.30;99.90
5786;DHT22;2919;48.630;9.000;2023-01-23T08:26:39;-0.20;99.90
5786;DHT22;2919;48.630;9.000;2023-01-23T08:29:06;-0.20;99.90
5786;DHT22;2919;48.630;9.000;2023-01-23T08:31:31;-0.20;99.90
5786;DHT22;2919;48.630;9.000;2023-01-23T08:33:57;-0.20;99.90
5786;DHT22;2919;48.630;9.000;2023-01-23T08:36:23;-0.10;99.90
5786;DHT22;2919;48.630;9.000;2023-01-23T08:38:48;-0.10;99.90
5786;DHT22;2919;48.630;9.000;2023-01-23T08:41:14;-0.10;99.90
5786;DHT22;2919;48.630;9.000;2023-01-23T08:43:40;0.00;99.90
5786;DHT22;2919;48.630;9.000;2023-01-23T08:46:07;0.00;99.90
5786;DHT22;2919;48.630;9.000;2023-01-23T08:48:33;0.10;99.90
5786;DHT22;2919;48.630;9.000;2023-01-23T08:51:05;0.10;99.90
5786;DHT22;2919;48.630;9.000;2023-01-23T08:53:31;0.20;99.90
5786;DHT22;2919;48.630;9.000;2023-01-23T08:56:01;0.20;99.90
5786;DHT22;2919;48.630;9.000;2023-01-23T08:58:27;0.20;99.90
5786;DHT22;2919;48.630;9.000;2023-01-23T09:00:53;0.30;99.90
5786;DHT22;2919;48.630;9.000;2023-01-23T09:03:19;0.30;99.90
5786;DHT22;2919;48.630;9.000;2023-01-23T09:05:44;0.30;99.90
5786;DHT22;2919;48.630;9.000;2023-01-23T09:08:10;0.30;99.90
5786;DHT22;2919;48.630;9.000;2023-01-23T09:10:35;0.30;99.90
5786;DHT22;2919;48.630;9.000;2023-01-23T09:13:01;0.30;99.90
5786;DHT22;2919;48.630;9.000;2023-01-23T09:15:27;0.40;99.90
5786;DHT22;2919;48.630;9.000;2023-01-23T09:17:53;0.40;99.90
5786;DHT22;2919;48.630;9.000;2023-01-23T09:20:18;0.40;99.90
5786;DHT22;2919;48.630;9.000;2023-01-23T09:22:44;0.40;99.90
5786;DHT22;2919;48.630;9.000;2023-01-23T09:25:11;0.40;99.90
5786;DHT22;2919;48.630;9.000;2023-01-23T09:27:37;0.40;99.90
5786;DHT22;2919;48.630;9.000;2023-01-23T09:30:03;0.50;99.90
5786;DHT22;2919;48.630;9.000;2023-01-23T09:32:29;0.40;99.90
5786;DHT22;2919;48.630;9.000;2023-01-23T09:34:54;0.40;99.90
5786;DHT22;2919;48.630;9.000;2023-01-23T09:37:20;0.40;99.90
5786;DHT22;2919;48.630;9.000;2023-01-23T09:39:45;0.40;99.90
5786;DHT22;2919;48.630;9.000;2023-01-23T09:42:30;0.40;99.90
5786;DHT22;2919;48.630;9.000;2023-01-23T09:45:02;0.50;99.90
5786;DHT22;2919;48.630;9.000;2023-01-23T09:50:19;0.50;99.90
5786;DHT22;2919;48.630;9.000;2023-01-23T09:52:50;0.40;99.90
5786;DHT22;2919;48.630;9.000;2023-01-23T09:58:04;0.40;99.90
5786;DHT22;2919;48.630;9.000;2023-01-23T10:00:34;0.40;99.90
5786;DHT22;2919;48.630;9.000;2023-01-23T10:03:04;0.30;99.90
5786;DHT22;2919;48.630;9.000;2023-01-23T10:26:45;0.60;99.90
5786;DHT22;2919;48.630;9.000;2023-01-23T10:31:55;0.70;99.90
5786;DHT22;2919;48.630;9.000;2023-01-23T10:37:24;0.80;99.90
5786;DHT22;2919;48.630;9.000;2023-01-23T10:40:06;0.70;99.90
5786;DHT22;2919;48.630;9.000;2023-01-23T10:42:35;0.70;99.90
5786;DHT22;2919;48.630;9.000;2023-01-23T10:45:01;0.70;99.90
5786;DHT22;2919;48.630;9.000;2023-01-23T10:47:40;0.80;99.90
5786;DHT22;2919;48.630;9.000;2023-01-23T10:50:06;0.80;99.90
5786;DHT22;2919;48.630;9.000;2023-01-23T10:52:44;0.90;99.90
5786;DHT22;2919;48.630;9.000;2023-01-23T10:55:30;1.00;99.90
5786;DHT22;2919;48.630;9.000;2023-01-23T10:57:58;0.90;99.90
5786;DHT22;2919;48.630;9.000;2023-01-23T11:00:39;0.90;99.90
5786;DHT22;2919;48.630;9.000;2023-01-23T11:08:36;1.10;99.90
5786;DHT22;2919;48.630;9.000;2023-01-23T11:13:41;1.20;99.90
5786;DHT22;2919;48.630;9.000;2023-01-23T11:18:42;1.20;99.90
5786;DHT22;2919;48.630;9.000;2023-01-23T11:22:19;1.10;99.90
5786;DHT22;2919;48.630;9.000;2023-01-23T11:24:17;1.10;99.90
5786;DHT22;2919;48.630;9.000;2023-01-23T11:26:43;1.10;99.90
5786;DHT22;2919;48.630;9.000;2023-01-23T11:29:24;1.10;99.90
5786;DHT22;2919;48.630;9.000;2023-01-23T11:32:00;1.10;99.90
5786;DHT22;2919;48.630;9.000;2023-01-23T11:34:33;1.10;99.90
5786;DHT22;2919;48.630;9.000;2023-01-23T11:42:00;1.10;99.90
5786;DHT22;2919;48.630;9.000;2023-01-23T11:44:27;1.10;99.90
5786;DHT22;2919;48.630;9.000;2023-01-23T12:00:50;1.00;99.90
5786;DHT22;2919;48.630;9.000;2023-01-23T12:03:35;1.00;99.90
5786;DHT22;2919;48.630;9.000;2023-01-23T12:11:32;0.80;99.90
5786;DHT22;2919;48.630;9.000;2023-01-23T12:14:20;0.80;99.90
5786;DHT22;2919;48.630;9.000;2023-01-23T12:19:37;0.80;99.90
5786;DHT22;2919;48.630;9.000;2023-01-23T12:25:35;0.90;99.90
5786;DHT22;2919;48.630;9.000;2023-01-23T12:44:04;1.40;99.90
5786;DHT22;2919;48.630;9.000;2023-01-23T12:49:36;1.50;99.90
5786;DHT22;2919;48.630;9.000;2023-01-23T12:52:20;1.60;99.90
5786;DHT22;2919;48.630;9.000;2023-01-23T12:57:39;2.00;99.90
5786;DHT22;2919;48.630;9.000;2023-01-23T13:08:54;2.20;99.90
5786;DHT22;2919;48.630;9.000;2023-01-23T13:14:36;2.00;99.90
5786;DHT22;2919;48.630;9.000;2023-01-23T13:19:53;1.80;99.90
5786;DHT22;2919;48.630;9.000;2023-01-23T13:23:32;1.80;99.90
5786;DHT22;2919;48.630;9.000;2023-01-23T13:39:27;1.50;99.90
5786;DHT22;2919;48.630;9.000;2023-01-23T13:50:38;1.40;99.90
5786;DHT22;2919;48.630;9.000;2023-01-23T13:53:18;1.50;99.90
5786;DHT22;2919;48.630;9.000;2023-01-23T13:56:03;1.50;99.90
5786;DHT22;2919;48.630;9.000;2023-01-23T13:58:48;1.50;99.90
5786;DHT22;2919;48.630;9.000;2023-01-23T14:01:19;1.50;99.90
5786;DHT22;2919;48.630;9.000;2023-01-23T14:04:19;1.50;99.90
5786;DHT22;2919;48.630;9.000;2023-01-23T14:07:40;1.40;99.90
5786;DHT22;2919;48.630;9.000;2023-01-23T14:10:36;1.40;99.90
5786;DHT22;2919;48.630;9.000;2023-01-23T14:15:28;1.40;99.90
5786;DHT22;2919;48.630;9.000;2023-01-23T14:18:22;1.30;99.90
5786;DHT22;2919;48.630;9.000;2023-01-23T14:20:49;1.30;99.90
5786;DHT22;2919;48.630;9.000;2023-01-23T14:23:26;1.20;99.90
5786;DHT22;2919;48.630;9.000;2023-01-23T14:25:53;1.30;99.90
5786;DHT22;2919;48.630;9.000;2023-01-23T14:28:19;1.30;99.90
5786;DHT22;2919;48.630;9.000;2023-01-23T14:30:59;1.40;99.90
5786;DHT22;2919;48.630;9.000;2023-01-23T14:33:27;1.40;99.90
5786;DHT22;2919;48.630;9.000;2023-01-23T14:35:53;1.50;99.90
5786;DHT22;2919;48.630;9.000;2023-01-23T14:38:38;1.50;99.90
5786;DHT22;2919;48.630;9.000;2023-01-23T14:41:06;1.50;99.90
5786;DHT22;2919;48.630;9.000;2023-01-23T14:43:32;1.40;99.90
5786;DHT22;2919;48.630;9.000;2023-01-23T14:48:39;1.40;99.90
5786;DHT22;2919;48.630;9.000;2023-01-23T14:51:20;1.40;99.90
5786;DHT22;2919;48.630;9.000;2023-01-23T14:54:00;1.40;99.90
5786;DHT22;2919;48.630;9.000;2023-01-23T14:56:37;1.30;99.90
5786;DHT22;2919;48.630;9.000;2023-01-23T14:59:06;1.30;99.90
5786;DHT22;2919;48.630;9.000;2023-01-23T15:01:33;1.30;99.90
5786;DHT22;2919;48.630;9.000;2023-01-23T15:04:19;1.30;99.90
5786;DHT22;2919;48.630;9.000;2023-01-23T15:06:53;1.20;99.90
5786;DHT22;2919;48.630;9.000;2023-01-23T15:09:29;1.30;99.90
5786;DHT22;2919;48.630;9.000;2023-01-23T15:12:02;1.30;99.90
5786;DHT22;2919;48.630;9.000;2023-01-23T15:14:35;1.30;99.90
5786;DHT22;2919;48.630;9.000;2023-01-23T15:17:03;1.20;99.90
5786;DHT22;2919;48.630;9.000;2023-01-23T15:19:30;1.20;99.90
5786;DHT22;2919;48.630;9.000;2023-01-23T15:22:28;1.20;99.90
5786;DHT22;2919;48.630;9.000;2023-01-23T15:24:54;1.20;99.90
5786;DHT22;2919;48.630;9.000;2023-01-23T15:27:30;1.20;99.90
5786;DHT22;2919;48.630;9.000;2023-01-23T15:32:53;1.20;99.90
5786;DHT22;2919;48.630;9.000;2023-01-23T15:35:19;1.20;99.90
5786;DHT22;2919;48.630;9.000;2023-01-23T15:37:48;1.20;99.90
5786;DHT22;2919;48.630;9.000;2023-01-23T15:40:16;1.10;99.90
5786;DHT22;2919;48.630;9.000;2023-01-23T15:42:42;1.10;99.90
5786;DHT22;2919;48.630;9.000;2023-01-23T15:45:25;1.10;99.90
5786;DHT22;2919;48.630;9.000;2023-01-23T15:47:51;1.20;99.90
5786;DHT22;2919;48.630;9.000;2023-01-23T15:50:16;1.20;99.90
5786;DHT22;2919;48.630;9.000;2023-01-23T15:52:47;1.20;99.90
5786;DHT22;2919;48.630;9.000;2023-01-23T15:55:13;1.20;99.90
5786;DHT22;2919;48.630;9.000;2023-01-23T15:57:39;1.20;99.90
5786;DHT22;2919;48.630;9.000;2023-01-23T16:00:26;1.20;99.90
5786;DHT22;2919;48.630;9.000;2023-01-23T16:02:54;1.20;99.90
5786;DHT22;2919;48.630;9.000;2023-01-23T16:05:25;1.20;99.90
5786;DHT22;2919;48.630;9.000;2023-01-23T16:07:52;1.20;99.90
5786;DHT22;2919;48.630;9.000;2023-01-23T16:12:49;1.20;99.90
5786;DHT22;2919;48.630;9.000;2023-01-23T16:15:21;1.20;99.90
5786;DHT22;2919;48.630;9.000;2023-01-23T16:17:47;1.10;99.90
5786;DHT22;2919;48.630;9.000;2023-01-23T16:20:18;1.20;99.90
5786;DHT22;2919;48.630;9.000;2023-01-23T16:22:48;1.10;99.90
5786;DHT22;2919;48.630;9.000;2023-01-23T16:25:25;1.10;99.90
5786;DHT22;2919;48.630;9.000;2023-01-23T16:27:51;1.10;99.90
5786;DHT22;2919;48.630;9.000;2023-01-23T16:30:18;1.10;99.90
5786;DHT22;2919;48.630;9.000;2023-01-23T16:32:44;1.10;99.90
5786;DHT22;2919;48.630;9.000;2023-01-23T16:35:14;1.10;99.90
5786;DHT22;2919;48.630;9.000;2023-01-23T16:37:42;1.10;99.90
5786;DHT22;2919;48.630;9.000;2023-01-23T16:40:24;1.10;99.90
5786;DHT22;2919;48.630;9.000;2023-01-23T16:42:51;1.00;99.90
5786;DHT22;2919;48.630;9.000;2023-01-23T16:45:21;1.00;99.90
5786;DHT22;2919;48.630;9.000;2023-01-23T16:47:47;1.00;99.90
5786;DHT22;2919;48.630;9.000;2023-01-23T16:50:16;1.00;99.90
5786;DHT22;2919;48.630;9.000;2023-01-23T16:52:53;1.10;99.90
5786;DHT22;2919;48.630;9.000;2023-01-23T16:55:25;1.00;99.90
5786;DHT22;2919;48.630;9.000;2023-01-23T16:57:53;1.00;99.90
5786;DHT22;2919;48.630;9.000;2023-01-23T17:00:21;1.00;99.90
5786;DHT22;2919;48.630;9.000;2023-01-23T17:02:52;1.00;99.90
5786;DHT22;2919;48.630;9.000;2023-01-23T17:05:18;1.00;99.90
5786;DHT22;2919;48.630;9.000;2023-01-23T17:07:44;0.90;99.90
5786;DHT22;2919;48.630;9.000;2023-01-23T17:10:19;1.00;99.90
5786;DHT22;2919;48.630;9.000;2023-01-23T17:12:47;1.00;99.90
5786;DHT22;2919;48.630;9.000;2023-01-23T17:15:25;1.00;99.90
5786;DHT22;2919;48.630;9.000;2023-01-23T17:17:55;0.90;99.90
5786;DHT22;2919;48.630;9.000;2023-01-23T17:20:21;0.90;99.90
5786;DHT22;2919;48.630;9.000;2023-01-23T17:22:47;1.00;99.90
5786;DHT22;2919;48.630;9.000;2023-01-23T17:25:18;1.00;99.90
5786;DHT22;2919;48.630;9.000;2023-01-23T17:27:45;1.00;99.90
5786;DHT22;2919;48.630;9.000;2023-01-23T17:30:22;1.00;99.90
5786;DHT22;2919;48.630;9.000;2023-01-23T17:32:54;1.00;99.90
5786;DHT22;2919;48.630;9.000;2023-01-23T17:35:22;1.00;99.90
5786;DHT22;2919;48.630;9.000;2023-01-23T17:37:53;1.00;99.90
5786;DHT22;2919;48.630;9.000;2023-01-23T17:40:22;1.00;99.90
5786;DHT22;2919;48.630;9.000;2023-01-23T17:42:47;1.00;99.90
5786;DHT22;2919;48.630;9.000;2023-01-23T17:45:15;1.00;99.90
5786;DHT22;2919;48.630;9.000;2023-01-23T17:47:43;1.00;99.90
5786;DHT22;2919;48.630;9.000;2023-01-23T17:52:45;1.00;99.90
5786;DHT22;2919;48.630;9.000;2023-01-23T17:55:16;1.00;99.90
5786;DHT22;2919;48.630;9.000;2023-01-23T17:57:42;1.10;99.90
5786;DHT22;2919;48.630;9.000;2023-01-23T18:00:10;1.10;99.90
5786;DHT22;2919;48.630;9.000;2023-01-23T18:02:38;1.10;99.90
5786;DHT22;2919;48.630;9.000;2023-01-23T18:05:05;1.10;99.90
5786;DHT22;2919;48.630;9.000;2023-01-23T18:07:31;1.10;99.90
5786;DHT22;2919;48.630;9.000;2023-01-23T18:10:05;1.10;99.90
5786;DHT22;2919;48.630;9.000;2023-01-23T18:15:20;1.20;99.90
5786;DHT22;2919;48.630;9.000;2023-01-23T18:20:28;1.20;99.90
5786;DHT22;2919;48.630;9.000;2023-01-23T18:22:54;1.20;99.90
5786;DHT22;2919;48.630;9.000;2023-01-23T18:25:22;1.20;99.90
5786;DHT22;2919;48.630;9.000;2023-01-23T18:27:53;1.20;99.90
5786;DHT22;2919;48.630;9.000;2023-01-23T18:30:25;1.20;99.90
5786;DHT22;2919;48.630;9.000;2023-01-23T18:41:23;1.10;99.90
5786;DHT22;2919;48.630;9.000;2023-01-23T18:46:27;1.10;99.90
5786;DHT22;2919;48.630;9.000;2023-01-23T18:48:53;1.00;99.90
5786;DHT22;2919;48.630;9.000;2023-01-23T18:53:55;1.10;99.90
5786;DHT22;2919;48.630;9.000;2023-01-23T18:59:23;1.00;99.90
5786;DHT22;2919;48.630;9.000;2023-01-23T19:02:00;1.00;99.90
5786;DHT22;2919;48.630;9.000;2023-01-23T19:04:46;1.00;99.90
5786;DHT22;2919;48.630;9.000;2023-01-23T19:07:16;1.00;99.90
5786;DHT22;2919;48.630;9.000;2023-01-23T19:09:43;1.00;99.90
5786;DHT22;2919;48.630;9.000;2023-01-23T19:12:29;0.90;99.90
5786;DHT22;2919;48.630;9.000;2023-01-23T19:20:44;1.00;99.90
5786;DHT22;2919;48.630;9.000;2023-01-23T19:25:54;0.90;99.90